createdAt,value
2023-03-27T00:01:15.951Z,1.00
2023-03-27T00:03:44.889Z,1.10
2023-03-27T00:06:16.380Z,0.80
2023-03-27T00:08:44.288Z,1.00
2023-03-27T00:11:12.281Z,1.05
2023-03-27T00:13:49.101Z,1.20
2023-03-27T00:16:20.093Z,0.85
2023-03-27T00:18:48.708Z,0.90
2023-03-27T00:21:16.561Z,0.90
2023-03-27T00:23:44.719Z,1.00
2023-03-27T00:26:13.337Z,1.00
2023-03-27T00:28:41.126Z,1.10
2023-03-27T00:31:11.566Z,1.17
2023-03-27T00:33:41.221Z,1.00
2023-03-27T00:36:09.641Z,1.48
2023-03-27T00:38:39.619Z,1.38
2023-03-27T00:41:08.156Z,1.52
2023-03-27T00:43:37.728Z,1.90
2023-03-27T00:46:08.011Z,1.90
2023-03-27T00:48:37.311Z,1.88
2023-03-27T00:51:06.921Z,2.03
2023-03-27T00:53:34.835Z,2.10
2023-03-27T00:56:04.246Z,2.25
2023-03-27T00:58:35.189Z,2.25
2023-03-27T01:01:03.067Z,2.20
2023-03-27T01:03:32.317Z,2.85
2023-03-27T01:06:01.891Z,3.17
2023-03-27T01:08:33.123Z,3.22
2023-03-27T01:11:09.432Z,2.67
2023-03-27T01:13:45.942Z,2.83
2023-03-27T01:16:19.028Z,2.90
2023-03-27T01:18:55.283Z,3.00
2023-03-27T01:21:33.688Z,3.55
2023-03-27T01:24:16.412Z,3.03
2023-03-27T01:27:04.317Z,1.95
2023-03-27T01:29:58.184Z,3.38
2023-03-27T01:32:45.368Z,2.92
2023-03-27T01:35:24.575Z,2.88
2023-03-27T01:38:10.111Z,3.67
2023-03-27T01:40:42.739Z,3.78
2023-03-27T01:43:13.526Z,3.53
2023-03-27T01:45:43.683Z,3.65
2023-03-27T01:48:12.929Z,3.75
2023-03-27T01:50:45.268Z,3.60
2023-03-27T01:53:15.473Z,4.00
2023-03-27T01:55:48.072Z,3.50
2023-03-27T01:58:18.242Z,3.80
2023-03-27T02:00:51.958Z,3.60
2023-03-27T02:03:24.571Z,3.63
2023-03-27T02:05:56.372Z,3.38
2023-03-27T02:08:28.126Z,3.75
2023-03-27T02:11:04.667Z,3.95
2023-03-27T02:13:35.707Z,3.53
2023-03-27T02:16:05.066Z,3.70
2023-03-27T02:18:34.645Z,4.35
2023-03-27T02:21:03.232Z,3.90
2023-03-27T02:23:33.146Z,4.53
2023-03-27T02:26:01.738Z,5.43
2023-03-27T02:28:46.173Z,5.30
2023-03-27T02:31:31.919Z,5.07
2023-03-27T02:34:11.894Z,6.22
2023-03-27T02:36:44.972Z,6.13
2023-03-27T02:39:15.079Z,6.47
2023-03-27T02:41:46.304Z,6.50
2023-03-27T02:44:47.327Z,6.03
2023-03-27T02:47:19.685Z,5.97
2023-03-27T02:49:49.797Z,5.68
2023-03-27T02:52:21.729Z,5.45
2023-03-27T02:54:51.987Z,5.75
2023-03-27T02:57:22.666Z,5.93
2023-03-27T03:00:19.913Z,5.65
2023-03-27T03:02:55.696Z,4.60
2023-03-27T03:05:24.400Z,5.18
2023-03-27T03:07:54.420Z,4.35
2023-03-27T03:10:26.286Z,3.65
2023-03-27T03:12:54.300Z,3.58
2023-03-27T03:15:23.856Z,3.47
2023-03-27T03:17:52.119Z,3.58
2023-03-27T03:20:19.864Z,3.60
2023-03-27T03:22:49.401Z,3.80
2023-03-27T03:25:20.314Z,3.42
2023-03-27T03:27:48.653Z,4.13
2023-03-27T03:30:18.438Z,3.80
2023-03-27T03:33:00.111Z,4.32
2023-03-27T03:35:28.478Z,4.10
2023-03-27T03:37:59.395Z,4.50
2023-03-27T03:40:28.219Z,4.15
2023-03-27T03:42:58.816Z,3.95
2023-03-27T03:45:29.590Z,3.40
2023-03-27T03:47:58.944Z,3.60
2023-03-27T03:50:27.063Z,2.33
2023-03-27T03:52:54.815Z,2.30
2023-03-27T03:55:22.657Z,1.65
2023-03-27T03:57:50.476Z,1.73
2023-03-27T04:00:25.160Z,1.30
2023-03-27T04:02:55.770Z,1.50
2023-03-27T04:05:35.115Z,1.30
2023-03-27T04:08:03.906Z,1.60
2023-03-27T04:10:49.128Z,1.35
2023-03-27T04:13:43.144Z,1.35
2023-03-27T04:16:21.734Z,1.85
2023-03-27T04:18:54.483Z,1.20
2023-03-27T04:21:26.602Z,1.58
2023-03-27T04:24:02.385Z,1.58
2023-03-27T04:26:43.465Z,1.23
2023-03-27T04:29:26.675Z,0.90
2023-03-27T04:32:00.501Z,0.80
2023-03-27T04:34:40.703Z,1.00
2023-03-27T04:37:12.922Z,1.08
2023-03-27T04:39:47.094Z,0.80
2023-03-27T04:42:15.100Z,1.00
2023-03-27T04:44:46.034Z,0.85
2023-03-27T04:47:14.483Z,0.70
2023-03-27T04:49:48.679Z,0.50
2023-03-27T04:52:25.532Z,0.70
2023-03-27T04:54:53.777Z,0.85
2023-03-27T04:57:22.417Z,0.90
2023-03-27T04:59:50.638Z,0.60
2023-03-27T05:02:37.734Z,0.82
2023-03-27T05:05:18.869Z,0.90
2023-03-27T05:07:54.797Z,0.70
2023-03-27T05:10:25.782Z,1.15
2023-03-27T05:12:57.115Z,0.88
2023-03-27T05:15:26.179Z,0.90
2023-03-27T05:17:56.455Z,0.90
2023-03-27T05:20:26.375Z,0.90
2023-03-27T05:22:57.296Z,1.00
2023-03-27T05:25:27.267Z,1.15
2023-03-27T05:27:56.235Z,1.95
2023-03-27T05:30:28.184Z,1.10
2023-03-27T05:33:25.784Z,1.17
2023-03-27T05:35:58.757Z,1.58
2023-03-27T05:38:29.093Z,0.90
2023-03-27T05:41:16.141Z,1.30
2023-03-27T05:43:50.171Z,1.20
2023-03-27T05:46:20.612Z,1.35
2023-03-27T05:48:55.063Z,1.45
2023-03-27T05:51:24.342Z,1.40
2023-03-27T05:53:53.807Z,1.40
2023-03-27T05:56:25.857Z,1.83
2023-03-27T05:58:59.973Z,2.60
2023-03-27T06:01:29.157Z,0.93
2023-03-27T06:03:59.806Z,0.77
2023-03-27T06:06:46.802Z,3.17
2023-03-27T06:09:16.143Z,1.00
2023-03-27T06:11:53.656Z,3.28
2023-03-27T06:14:21.427Z,0.98
2023-03-27T06:17:07.814Z,1.77
2023-03-27T06:19:43.023Z,4.88
2023-03-27T06:22:11.211Z,4.35
2023-03-27T06:24:41.350Z,1.70
2023-03-27T06:27:10.997Z,0.88
2023-03-27T06:29:40.490Z,5.65
2023-03-27T06:32:08.849Z,1.90
2023-03-27T06:34:42.498Z,4.85
2023-03-27T06:37:37.054Z,2.58
2023-03-27T06:40:10.217Z,3.40
2023-03-27T06:42:40.015Z,5.28
2023-03-27T06:45:26.066Z,1.70
2023-03-27T06:48:24.326Z,3.53
2023-03-27T06:50:56.406Z,6.72
2023-03-27T06:53:28.261Z,5.15
2023-03-27T06:55:59.037Z,5.68
2023-03-27T06:58:29.696Z,4.07
2023-03-27T07:00:57.646Z,2.63
2023-03-27T07:03:38.699Z,6.22
2023-03-27T07:06:25.372Z,3.30
2023-03-27T07:08:58.587Z,6.20
2023-03-27T07:11:29.441Z,6.78
2023-03-27T07:14:02.069Z,4.25
2023-03-27T07:16:31.696Z,7.70
2023-03-27T07:19:02.414Z,5.15
2023-03-27T07:21:32.821Z,5.82
2023-03-27T07:24:01.522Z,7.78
2023-03-27T07:26:35.255Z,8.50
2023-03-27T07:29:10.845Z,8.80
2023-03-27T07:31:55.936Z,8.25
2023-03-27T07:37:09.033Z,9.05
2023-03-27T07:39:40.462Z,9.23
2023-03-27T07:42:09.795Z,10.75
2023-03-27T07:45:07.163Z,12.15
2023-03-27T07:47:35.546Z,11.68
2023-03-27T07:50:03.857Z,10.98
2023-03-27T07:52:34.729Z,15.32
2023-03-27T07:55:04.829Z,13.38
2023-03-27T07:57:55.406Z,12.93
2023-03-27T08:00:29.869Z,12.20
2023-03-27T08:03:10.174Z,12.32
2023-03-27T08:05:56.154Z,11.60
2023-03-27T08:08:25.696Z,13.02
2023-03-27T08:11:02.464Z,11.68
2023-03-27T08:13:36.554Z,12.45
2023-03-27T08:16:07.050Z,13.68
2023-03-27T08:18:34.954Z,12.35
2023-03-27T08:21:03.644Z,13.43
2023-03-27T08:23:36.791Z,11.10
2023-03-27T08:26:25.077Z,15.52
2023-03-27T08:29:01.128Z,13.23
2023-03-27T08:31:31.593Z,13.68
2023-03-27T08:34:01.832Z,13.43
2023-03-27T08:36:39.765Z,10.75
2023-03-27T08:39:08.328Z,12.15
2023-03-27T08:41:49.553Z,12.75
2023-03-27T08:44:25.668Z,10.38
2023-03-27T08:46:56.036Z,12.18
2023-03-27T08:49:26.735Z,12.13
2023-03-27T08:52:28.146Z,15.65
2023-03-27T08:55:00.040Z,11.65
2023-03-27T08:57:38.930Z,10.57
2023-03-27T09:00:18.856Z,10.10
2023-03-27T09:02:52.253Z,14.48
2023-03-27T09:05:22.914Z,9.15
2023-03-27T09:07:56.956Z,17.13
2023-03-27T09:10:35.793Z,11.00
2023-03-27T09:13:15.395Z,16.48
2023-03-27T09:15:44.979Z,12.55
2023-03-27T09:18:17.974Z,9.55
2023-03-27T09:20:48.361Z,9.20
2023-03-27T09:23:21.206Z,10.48
2023-03-27T09:26:21.118Z,10.70
2023-03-27T09:29:26.003Z,15.18
2023-03-27T09:32:02.703Z,7.38
2023-03-27T09:34:33.530Z,7.82
2023-03-27T09:37:02.460Z,11.60
2023-03-27T09:39:32.623Z,8.30
2023-03-27T09:42:17.213Z,10.05
2023-03-27T09:44:50.460Z,12.52
2023-03-27T09:47:22.573Z,6.70
2023-03-27T09:49:54.548Z,7.45
2023-03-27T09:52:36.903Z,8.02
2023-03-27T09:55:31.191Z,7.80
2023-03-27T09:58:11.687Z,7.07
2023-03-27T10:00:43.064Z,7.35
2023-03-27T10:03:16.613Z,8.02
2023-03-27T10:05:49.065Z,6.07
2023-03-27T10:08:29.182Z,10.68
2023-03-27T10:11:07.912Z,7.53
2023-03-27T10:13:49.320Z,8.88
2023-03-27T10:16:21.744Z,5.75
2023-03-27T10:19:00.086Z,6.43
2023-03-27T10:21:32.801Z,8.60
2023-03-27T10:24:04.115Z,6.40
2023-03-27T10:27:00.139Z,8.35
2023-03-27T10:29:31.406Z,5.55
2023-03-27T10:32:00.477Z,4.88
2023-03-27T10:34:38.496Z,5.22
2023-03-27T10:37:28.055Z,4.03
2023-03-27T10:40:17.333Z,4.50
2023-03-27T10:42:48.590Z,4.78
2023-03-27T10:45:17.526Z,4.60
2023-03-27T10:47:47.696Z,4.10
2023-03-27T10:50:21.251Z,4.15
2023-03-27T10:52:56.996Z,3.90
2023-03-27T10:55:41.503Z,3.47
2023-03-27T10:58:20.518Z,3.55
2023-03-27T11:03:20.259Z,3.13
2023-03-27T11:05:53.731Z,3.80
2023-03-27T11:08:37.273Z,5.22
2023-03-27T11:11:08.386Z,4.28
2023-03-27T11:13:41.069Z,4.38
2023-03-27T11:16:14.717Z,3.22
2023-03-27T11:19:16.607Z,2.65
2023-03-27T11:22:06.729Z,5.22
2023-03-27T11:24:42.025Z,2.65
2023-03-27T11:27:15.392Z,3.70
2023-03-27T11:29:46.760Z,3.53
2023-03-27T11:32:19.468Z,3.63
2023-03-27T11:34:57.565Z,3.50
2023-03-27T11:37:49.845Z,3.58
2023-03-27T11:40:24.081Z,3.05
2023-03-27T11:42:58.953Z,3.50
2023-03-27T11:45:29.472Z,3.17
2023-03-27T11:48:04.897Z,2.75
2023-03-27T11:50:45.007Z,2.97
2023-03-27T11:53:21.612Z,3.03
2023-03-27T11:56:24.793Z,2.80
2023-03-27T11:59:15.898Z,2.83
2023-03-27T12:01:56.823Z,2.13
2023-03-27T12:04:33.219Z,2.67
2023-03-27T12:07:35.272Z,2.65
2023-03-27T12:10:19.737Z,2.45
2023-03-27T12:13:41.260Z,2.70
2023-03-27T12:16:41.293Z,2.00
2023-03-27T12:19:36.237Z,2.30
2023-03-27T12:22:26.522Z,2.90
2023-03-27T12:25:08.049Z,2.42
2023-03-27T12:27:59.740Z,1.70
2023-03-27T12:30:43.797Z,1.70
2023-03-27T12:33:28.445Z,2.63
2023-03-27T12:35:59.573Z,1.70
2023-03-27T12:38:28.932Z,4.07
2023-03-27T12:41:02.837Z,3.53
2023-03-27T12:43:44.970Z,4.03
2023-03-27T12:46:31.776Z,6.45
2023-03-27T12:49:01.905Z,4.25
2023-03-27T12:51:47.561Z,3.08
2023-03-27T12:54:27.051Z,2.28
2023-03-27T12:57:05.578Z,3.13
2023-03-27T12:59:35.650Z,2.03
2023-03-27T13:02:30.882Z,5.10
2023-03-27T13:05:23.996Z,2.65
2023-03-27T13:08:04.863Z,5.50
2023-03-27T13:10:59.559Z,7.15
2023-03-27T13:13:55.429Z,5.72
2023-03-27T13:16:32.520Z,4.90
2023-03-27T13:19:08.779Z,3.33
2023-03-27T13:21:58.379Z,9.38
2023-03-27T13:24:33.725Z,13.57
2023-03-27T13:27:11.124Z,2.22
2023-03-27T13:29:39.822Z,2.75
2023-03-27T13:32:33.223Z,3.00
2023-03-27T13:35:33.766Z,9.15
2023-03-27T13:38:02.582Z,17.73
2023-03-27T13:40:44.525Z,1.50
2023-03-27T13:43:25.399Z,6.40
2023-03-27T13:46:03.890Z,1.52
2023-03-27T13:49:10.960Z,2.65
2023-03-27T13:52:02.824Z,1.50
2023-03-27T13:54:48.814Z,1.60
2023-03-27T13:57:24.177Z,1.05
2023-03-27T14:00:13.913Z,1.05
2023-03-27T14:03:02.605Z,2.42
2023-03-27T14:05:57.056Z,4.88
2023-03-27T14:08:36.158Z,1.02
2023-03-27T14:11:42.018Z,1.38
2023-03-27T14:14:32.377Z,1.70
2023-03-27T14:17:12.043Z,1.73
2023-03-27T14:19:48.873Z,2.10
2023-03-27T14:22:26.419Z,2.45
2023-03-27T14:25:00.307Z,1.13
2023-03-27T14:27:36.272Z,1.65
2023-03-27T14:30:07.479Z,1.98
2023-03-27T14:32:38.939Z,1.77
2023-03-27T14:35:23.967Z,2.30
2023-03-27T14:38:03.627Z,4.05
2023-03-27T14:40:43.840Z,4.03
2023-03-27T14:43:15.456Z,3.05
2023-03-27T14:45:44.612Z,3.97
2023-03-27T14:48:21.147Z,1.90
2023-03-27T14:50:53.243Z,1.70
2023-03-27T14:53:26.221Z,2.58
2023-03-27T14:56:21.109Z,2.20
2023-03-27T14:58:58.728Z,2.55
2023-03-27T15:01:32.043Z,2.00
2023-03-27T15:04:02.250Z,2.70
2023-03-27T15:06:36.585Z,1.55
2023-03-27T15:09:13.294Z,1.60
2023-03-27T15:12:10.742Z,1.48
2023-03-27T15:14:39.343Z,1.42
2023-03-27T15:17:09.939Z,1.40
2023-03-27T15:19:45.414Z,2.45
2023-03-27T15:22:16.857Z,2.05
2023-03-27T15:24:48.728Z,1.65
2023-03-27T15:27:19.504Z,1.60
2023-03-27T15:29:51.352Z,1.83
2023-03-27T15:32:22.281Z,1.58
2023-03-27T15:34:57.000Z,3.15
2023-03-27T15:37:26.517Z,3.08
2023-03-27T15:40:02.180Z,3.35
2023-03-27T15:42:38.166Z,2.38
2023-03-27T15:45:09.143Z,4.60
2023-03-27T15:47:37.657Z,2.10
2023-03-27T15:50:16.342Z,2.05
2023-03-27T15:52:49.539Z,2.25
2023-03-27T15:55:32.948Z,4.88
2023-03-27T15:58:13.624Z,3.78
2023-03-27T16:00:48.318Z,2.13
2023-03-27T16:03:18.712Z,1.80
2023-03-27T16:05:49.144Z,1.95
2023-03-27T16:08:28.645Z,2.22
2023-03-27T16:10:58.433Z,4.43
2023-03-27T16:13:27.746Z,2.78
2023-03-27T16:15:59.586Z,2.63
2023-03-27T16:18:32.596Z,2.42
2023-03-27T16:21:11.348Z,2.22
2023-03-27T16:23:39.234Z,2.25
2023-03-27T16:26:08.187Z,2.40
2023-03-27T16:28:36.600Z,1.90
2023-03-27T16:31:11.161Z,2.58
2023-03-27T16:36:10.733Z,3.83
2023-03-27T16:38:40.867Z,3.25
2023-03-27T16:41:11.924Z,1.92
2023-03-27T16:43:39.801Z,2.00
2023-03-27T16:46:07.841Z,2.90
2023-03-27T16:48:38.418Z,2.80
2023-03-27T16:51:06.550Z,3.05
2023-03-27T16:53:35.688Z,4.35
2023-03-27T16:56:03.716Z,3.10
2023-03-27T16:58:32.998Z,2.65
2023-03-27T17:01:00.779Z,3.88
2023-03-27T17:03:28.606Z,7.95
2023-03-27T17:05:59.861Z,5.82
2023-03-27T17:08:30.310Z,7.22
2023-03-27T17:11:03.813Z,7.07
2023-03-27T17:13:31.796Z,10.38
2023-03-27T17:16:00.054Z,4.47
2023-03-27T17:18:28.125Z,2.78
2023-03-27T17:20:56.456Z,7.15
2023-03-27T17:23:24.358Z,7.85
2023-03-27T17:25:52.171Z,2.45
2023-03-27T17:28:21.340Z,3.97
2023-03-27T17:31:00.999Z,7.88
2023-03-27T17:33:33.604Z,10.60
2023-03-27T17:36:02.118Z,6.88
2023-03-27T17:38:30.679Z,8.32
2023-03-27T17:41:00.022Z,8.50
2023-03-27T17:43:29.232Z,3.20
2023-03-27T17:45:57.633Z,3.88
2023-03-27T17:48:28.491Z,3.47
2023-03-27T17:51:08.240Z,3.08
2023-03-27T17:53:37.776Z,2.47
2023-03-27T17:56:08.088Z,2.42
2023-03-27T17:58:37.299Z,2.28
2023-03-27T18:01:14.300Z,3.20
2023-03-27T18:03:42.644Z,2.50
2023-03-27T18:06:10.457Z,2.40
2023-03-27T18:08:39.752Z,2.85
2023-03-27T18:11:11.539Z,2.58
2023-03-27T18:13:41.240Z,4.25
2023-03-27T18:16:11.723Z,2.70
2023-03-27T18:18:40.321Z,3.00
2023-03-27T18:21:09.375Z,3.00
2023-03-27T18:23:46.379Z,3.20
2023-03-27T18:26:15.880Z,2.90
2023-03-27T18:28:45.076Z,4.10
2023-03-27T18:31:13.649Z,3.30
2023-03-27T18:33:41.740Z,4.60
2023-03-27T18:36:12.266Z,3.67
2023-03-27T18:38:40.962Z,4.68
2023-03-27T18:41:09.203Z,5.13
2023-03-27T18:43:39.058Z,4.53
2023-03-27T18:46:08.680Z,3.88
2023-03-27T18:48:36.590Z,3.03
2023-03-27T18:51:06.525Z,3.03
2023-03-27T18:53:36.104Z,3.10
2023-03-27T18:56:04.230Z,2.97
2023-03-27T18:58:32.180Z,3.70
2023-03-27T19:01:00.111Z,4.72
2023-03-27T19:03:34.922Z,4.07
2023-03-27T19:06:04.224Z,5.25
2023-03-27T19:08:32.263Z,4.63
2023-03-27T19:11:00.314Z,4.50
2023-03-27T19:13:47.257Z,5.13
2023-03-27T19:16:17.776Z,4.95
2023-03-27T19:19:16.292Z,3.90
2023-03-27T19:22:02.472Z,4.03
2023-03-27T19:24:38.341Z,3.80
2023-03-27T19:27:06.135Z,4.07
2023-03-27T19:29:34.042Z,3.58
2023-03-27T19:32:01.862Z,4.43
2023-03-27T19:34:41.869Z,4.38
2023-03-27T19:37:10.319Z,3.55
2023-03-27T19:39:38.191Z,3.70
2023-03-27T19:42:06.008Z,4.63
2023-03-27T19:44:38.168Z,5.07
2023-03-27T19:47:07.648Z,4.00
2023-03-27T19:49:37.685Z,3.47
2023-03-27T19:52:32.101Z,3.88
2023-03-27T19:54:59.916Z,3.75
2023-03-27T19:57:27.793Z,4.22
2023-03-27T19:59:56.006Z,3.72
2023-03-27T20:02:24.013Z,4.03
2023-03-27T20:04:53.732Z,3.75
2023-03-27T20:07:21.687Z,3.95
2023-03-27T20:09:50.633Z,4.28
2023-03-27T20:12:21.672Z,3.80
2023-03-27T20:15:02.941Z,4.10
2023-03-27T20:17:37.808Z,3.90
2023-03-27T20:20:10.596Z,3.92
2023-03-27T20:22:50.118Z,4.45
2023-03-27T20:25:22.775Z,4.07
2023-03-27T20:27:52.244Z,4.30
2023-03-27T20:30:20.123Z,4.35
2023-03-27T20:32:50.905Z,3.97
2023-03-27T20:35:24.239Z,3.53
2023-03-27T20:37:58.639Z,3.83
2023-03-27T20:40:34.754Z,3.28
2023-03-27T20:43:07.507Z,3.35
2023-03-27T20:45:42.915Z,3.55
2023-03-27T20:48:15.022Z,3.42
2023-03-27T20:50:49.165Z,3.65
2023-03-27T20:53:18.320Z,3.05
2023-03-27T20:55:53.371Z,3.88
2023-03-27T20:58:27.556Z,3.15
2023-03-27T21:00:56.204Z,2.90
2023-03-27T21:03:24.095Z,3.00
2023-03-27T21:05:53.253Z,3.10
2023-03-27T21:08:21.880Z,3.40
2023-03-27T21:10:53.131Z,3.15
2023-03-27T21:13:21.369Z,3.42
2023-03-27T21:15:49.617Z,3.00
2023-03-27T21:18:19.108Z,2.75
2023-03-27T21:20:47.044Z,2.70
2023-03-27T21:23:16.416Z,3.35
2023-03-27T21:25:45.568Z,2.80
2023-03-27T21:28:13.393Z,3.03
2023-03-27T21:30:46.519Z,3.08
2023-03-27T21:33:16.403Z,2.97
2023-03-27T21:35:46.876Z,3.40
2023-03-27T21:38:18.441Z,3.53
2023-03-27T21:40:46.471Z,3.33
2023-03-27T21:43:14.588Z,3.20
2023-03-27T21:45:42.422Z,3.42
2023-03-27T21:48:11.831Z,3.30
2023-03-27T21:50:39.676Z,3.45
2023-03-27T21:53:07.485Z,3.78
2023-03-27T21:55:38.545Z,3.90
2023-03-27T21:58:06.919Z,3.70
2023-03-27T22:00:34.997Z,3.80
2023-03-27T22:03:02.982Z,3.53
2023-03-27T22:05:32.413Z,4.10
2023-03-27T22:08:01.065Z,3.70
2023-03-27T22:10:28.789Z,4.05
2023-03-27T22:12:58.043Z,4.22
2023-03-27T22:15:25.910Z,4.65
2023-03-27T22:17:53.731Z,4.00
2023-03-27T22:20:21.695Z,3.28
2023-03-27T22:22:49.544Z,2.17
2023-03-27T22:25:17.511Z,2.25
2023-03-27T22:27:46.487Z,2.70
2023-03-27T22:30:15.933Z,2.38
2023-03-27T22:32:43.870Z,2.22
2023-03-27T22:35:12.096Z,2.53
2023-03-27T22:37:40.399Z,2.67
2023-03-27T22:40:09.014Z,2.78
2023-03-27T22:42:36.890Z,2.92
2023-03-27T22:45:04.933Z,3.92
2023-03-27T22:47:34.261Z,3.55
2023-03-27T22:50:03.238Z,3.35
2023-03-27T22:52:31.276Z,2.95
2023-03-27T22:54:59.049Z,3.72
2023-03-27T22:57:26.818Z,3.75
2023-03-27T22:59:55.093Z,4.15
2023-03-27T23:02:23.293Z,4.40
2023-03-27T23:04:52.561Z,5.10
2023-03-27T23:07:20.515Z,6.45
2023-03-27T23:09:48.403Z,6.80
2023-03-27T23:12:16.303Z,8.25
2023-03-27T23:14:44.102Z,8.07
2023-03-27T23:17:12.218Z,8.40
2023-03-27T23:19:40.023Z,8.98
2023-03-27T23:22:09.176Z,8.77
2023-03-27T23:24:36.991Z,9.07
2023-03-27T23:27:08.319Z,9.32
2023-03-27T23:29:36.730Z,8.48
2023-03-27T23:32:05.178Z,8.90
2023-03-27T23:34:33.017Z,8.85
2023-03-27T23:37:01.016Z,9.80
2023-03-27T23:39:30.448Z,9.27
2023-03-27T23:41:58.265Z,9.13
2023-03-27T23:44:26.098Z,9.43
2023-03-27T23:46:53.921Z,8.73
2023-03-27T23:49:21.804Z,9.45
2023-03-27T23:51:49.691Z,9.23
2023-03-27T23:54:17.480Z,8.48
2023-03-27T23:56:46.621Z,9.77
2023-03-27T23:59:14.726Z,9.52
